createdAt,value
2022-11-30T00:01:33.321Z,40.17
2022-11-30T00:04:00.099Z,40.10
2022-11-30T00:06:26.930Z,37.20
2022-11-30T00:08:58.669Z,38.17
2022-11-30T00:11:27.256Z,40.47
2022-11-30T00:13:54.108Z,38.90
2022-11-30T00:16:23.520Z,40.67
2022-11-30T00:18:50.759Z,41.13
2022-11-30T00:21:17.970Z,39.77
2022-11-30T00:23:46.518Z,38.93
2022-11-30T00:26:16.376Z,41.80
2022-11-30T00:28:45.285Z,41.37
2022-11-30T00:31:14.219Z,38.67
2022-11-30T00:33:41.127Z,40.90
2022-11-30T00:36:11.565Z,40.03
2022-11-30T00:38:38.397Z,36.80
2022-11-30T00:41:05.615Z,37.73
2022-11-30T00:43:32.623Z,38.77
2022-11-30T00:45:59.505Z,39.77
2022-11-30T00:48:26.425Z,37.97
2022-11-30T00:50:53.489Z,38.47
2022-11-30T00:53:21.125Z,38.90
2022-11-30T00:55:48.675Z,38.80
2022-11-30T00:58:16.097Z,41.50
2022-11-30T01:00:43.117Z,39.47
2022-11-30T01:03:10.230Z,37.37
2022-11-30T01:05:37.403Z,40.43
2022-11-30T01:08:06.393Z,37.77
2022-11-30T01:10:34.432Z,37.00
2022-11-30T01:13:01.537Z,40.50
2022-11-30T01:15:28.467Z,38.77
2022-11-30T01:17:55.267Z,39.70
2022-11-30T01:20:22.411Z,38.90
2022-11-30T01:22:49.241Z,38.87
2022-11-30T01:25:16.148Z,39.70
2022-11-30T01:27:42.968Z,40.27
2022-11-30T01:30:10.257Z,36.63
2022-11-30T01:32:37.086Z,38.17
2022-11-30T01:35:03.981Z,40.17
2022-11-30T01:37:30.808Z,41.33
2022-11-30T01:39:57.567Z,39.47
2022-11-30T01:42:24.387Z,39.33
2022-11-30T01:44:52.455Z,38.03
2022-11-30T01:47:22.892Z,36.60
2022-11-30T01:49:53.350Z,39.80
2022-11-30T01:52:41.449Z,39.50
2022-11-30T01:55:54.942Z,38.97
2022-11-30T01:58:32.811Z,40.13
2022-11-30T02:01:04.404Z,37.03
2022-11-30T02:04:04.902Z,40.73
2022-11-30T02:07:02.070Z,36.57
2022-11-30T02:09:35.046Z,38.93
2022-11-30T02:12:04.642Z,40.20
2022-11-30T02:14:51.189Z,41.63
2022-11-30T02:17:32.511Z,38.37
2022-11-30T02:20:35.540Z,36.67
2022-11-30T02:23:51.716Z,40.40
2022-11-30T02:26:57.368Z,39.40
2022-11-30T02:32:24.495Z,38.33
2022-11-30T02:35:03.429Z,39.50
2022-11-30T02:37:52.192Z,39.13
2022-11-30T02:40:22.167Z,37.70
2022-11-30T02:42:57.117Z,37.27
2022-11-30T02:45:51.220Z,40.90
2022-11-30T02:48:30.321Z,40.35
2022-11-30T02:51:08.309Z,41.97
2022-11-30T02:53:54.356Z,39.07
2022-11-30T02:56:30.465Z,38.83
2022-11-30T02:59:09.583Z,36.70
2022-11-30T03:01:40.423Z,39.37
2022-11-30T03:04:08.615Z,38.43
2022-11-30T03:06:38.888Z,36.03
2022-11-30T03:09:12.170Z,40.60
2022-11-30T03:11:42.435Z,38.07
2022-11-30T03:14:09.386Z,36.73
2022-11-30T03:16:42.451Z,37.30
2022-11-30T03:19:19.153Z,39.43
2022-11-30T03:21:51.176Z,39.93
2022-11-30T03:24:19.001Z,38.13
2022-11-30T03:26:52.738Z,37.60
2022-11-30T03:29:24.150Z,37.13
2022-11-30T03:31:57.926Z,37.67
2022-11-30T03:34:27.370Z,39.90
2022-11-30T03:36:58.023Z,40.27
2022-11-30T03:39:26.717Z,38.10
2022-11-30T03:41:57.154Z,39.60
2022-11-30T03:44:24.863Z,39.13
2022-11-30T03:47:00.754Z,39.10
2022-11-30T03:49:31.022Z,38.97
2022-11-30T03:51:58.099Z,40.60
2022-11-30T03:54:24.888Z,38.40
2022-11-30T03:56:51.698Z,36.60
2022-11-30T03:59:18.512Z,38.63
2022-11-30T04:01:45.344Z,38.87
2022-11-30T04:04:12.558Z,38.37
2022-11-30T04:06:40.704Z,40.77
2022-11-30T04:09:07.480Z,36.80
2022-11-30T04:11:35.874Z,39.23
2022-11-30T04:14:02.712Z,37.47
2022-11-30T04:16:29.593Z,37.73
2022-11-30T04:18:56.411Z,37.83
2022-11-30T04:21:23.217Z,40.67
2022-11-30T04:23:50.028Z,42.33
2022-11-30T04:26:17.499Z,38.40
2022-11-30T04:28:44.730Z,41.57
2022-11-30T04:31:12.090Z,39.10
2022-11-30T04:33:39.354Z,38.67
2022-11-30T04:36:07.701Z,40.03
2022-11-30T04:38:36.509Z,39.80
2022-11-30T04:41:08.029Z,38.63
2022-11-30T04:43:34.870Z,39.73
2022-11-30T04:46:01.712Z,39.07
2022-11-30T04:48:28.492Z,38.10
2022-11-30T04:51:00.820Z,38.03
2022-11-30T04:53:27.644Z,39.23
2022-11-30T04:55:54.486Z,36.87
2022-11-30T04:58:21.265Z,38.37
2022-11-30T05:00:48.117Z,38.30
2022-11-30T05:03:14.930Z,41.03
2022-11-30T05:05:41.733Z,38.80
2022-11-30T05:08:09.498Z,38.43
2022-11-30T05:10:36.332Z,39.27
2022-11-30T05:13:03.125Z,39.00
2022-11-30T05:15:30.018Z,36.30
2022-11-30T05:18:01.279Z,39.63
2022-11-30T05:20:31.144Z,37.90
2022-11-30T05:22:57.937Z,39.03
2022-11-30T05:25:24.714Z,39.57
2022-11-30T05:27:51.546Z,38.27
2022-11-30T05:30:18.593Z,39.90
2022-11-30T05:32:45.459Z,37.40
2022-11-30T05:35:12.274Z,39.30
2022-11-30T05:37:39.069Z,38.53
2022-11-30T05:40:06.532Z,39.57
2022-11-30T05:42:33.374Z,38.30
2022-11-30T05:45:00.143Z,37.50
2022-11-30T05:47:26.968Z,41.47
2022-11-30T05:49:53.786Z,38.40
2022-11-30T05:52:20.571Z,38.67
2022-11-30T05:54:47.707Z,40.23
2022-11-30T05:57:14.730Z,40.73
2022-11-30T05:59:41.484Z,39.77
2022-11-30T06:02:08.460Z,41.50
2022-11-30T06:04:35.467Z,39.73
2022-11-30T06:07:02.327Z,39.17
2022-11-30T06:09:29.163Z,37.33
2022-11-30T06:11:56.069Z,39.70
2022-11-30T06:14:22.938Z,36.60
2022-11-30T06:16:49.824Z,39.73
2022-11-30T06:19:16.645Z,38.67
2022-11-30T06:21:43.452Z,37.17
2022-11-30T06:24:12.026Z,40.50
2022-11-30T06:26:44.933Z,37.33
2022-11-30T06:29:14.796Z,39.33
2022-11-30T06:31:41.696Z,38.23
2022-11-30T06:34:08.909Z,41.07
2022-11-30T06:36:36.557Z,38.00
2022-11-30T06:39:04.473Z,35.87
2022-11-30T06:41:31.329Z,37.67
2022-11-30T06:43:58.182Z,37.13
2022-11-30T06:46:26.192Z,38.30
2022-11-30T06:48:52.982Z,39.73
2022-11-30T06:51:19.895Z,39.97
2022-11-30T06:53:47.137Z,38.67
2022-11-30T06:56:14.031Z,40.70
2022-11-30T06:58:41.505Z,40.10
2022-11-30T07:01:13.315Z,38.97
2022-11-30T07:03:40.879Z,38.43
2022-11-30T07:06:10.238Z,39.43
2022-11-30T07:08:37.582Z,36.33
2022-11-30T07:11:05.153Z,40.07
2022-11-30T07:13:31.998Z,36.90
2022-11-30T07:15:58.804Z,39.47
2022-11-30T07:18:30.287Z,39.13
2022-11-30T07:21:00.805Z,39.67
2022-11-30T07:23:50.764Z,36.47
2022-11-30T07:26:22.238Z,37.53
2022-11-30T07:28:54.521Z,38.00
2022-11-30T07:31:28.718Z,38.27
2022-11-30T07:36:24.349Z,36.67
2022-11-30T07:38:51.188Z,38.63
2022-11-30T07:41:18.232Z,38.27
2022-11-30T07:43:45.065Z,36.37
2022-11-30T07:46:13.183Z,37.97
2022-11-30T07:48:40.364Z,40.37
2022-11-30T07:51:11.479Z,39.50
2022-11-30T07:53:38.256Z,37.80
2022-11-30T07:56:06.860Z,35.33
2022-11-30T07:58:33.965Z,38.77
2022-11-30T08:01:13.586Z,40.07
2022-11-30T08:03:40.552Z,39.47
2022-11-30T08:06:09.852Z,39.50
2022-11-30T08:08:41.585Z,39.47
2022-11-30T08:11:10.405Z,38.87
2022-11-30T08:13:37.254Z,37.37
2022-11-30T08:16:06.421Z,39.00
2022-11-30T08:18:33.361Z,37.90
2022-11-30T08:21:02.177Z,38.80
2022-11-30T08:23:33.886Z,38.60
2022-11-30T08:26:06.336Z,38.07
2022-11-30T08:28:36.054Z,38.47
2022-11-30T08:31:10.211Z,37.33
2022-11-30T08:33:37.380Z,36.47
2022-11-30T08:36:08.081Z,38.53
2022-11-30T08:38:35.700Z,38.07
2022-11-30T08:41:02.773Z,40.17
2022-11-30T08:43:29.599Z,37.00
2022-11-30T08:45:57.396Z,38.60
2022-11-30T08:48:24.675Z,40.07
2022-11-30T08:50:51.485Z,38.57
2022-11-30T08:53:18.274Z,36.33
2022-11-30T08:55:55.191Z,37.97
2022-11-30T08:58:22.019Z,40.83
2022-11-30T09:00:49.174Z,37.57
2022-11-30T09:03:16.066Z,36.53
2022-11-30T09:05:42.909Z,38.27
2022-11-30T09:08:09.762Z,38.27
2022-11-30T09:10:36.687Z,37.43
2022-11-30T09:13:03.485Z,36.00
2022-11-30T09:15:30.374Z,36.57
2022-11-30T09:17:57.345Z,37.87
2022-11-30T09:20:24.157Z,39.40
2022-11-30T09:22:50.957Z,39.40
2022-11-30T09:25:17.758Z,37.50
2022-11-30T09:27:44.602Z,37.60
2022-11-30T09:30:11.803Z,35.47
2022-11-30T09:32:38.699Z,36.27
2022-11-30T09:35:09.950Z,37.13
2022-11-30T09:37:40.241Z,36.35
2022-11-30T09:40:07.719Z,35.80
2022-11-30T09:42:47.664Z,38.97
2022-11-30T09:45:19.723Z,37.27
2022-11-30T09:47:59.665Z,38.10
2022-11-30T09:50:28.333Z,36.93
2022-11-30T09:52:58.231Z,37.73
2022-11-30T09:55:28.612Z,39.07
2022-11-30T09:57:58.653Z,38.97
2022-11-30T10:00:25.666Z,63.70
2022-11-30T10:02:55.667Z,38.57
2022-11-30T10:05:42.898Z,40.30
2022-11-30T10:08:21.935Z,38.57
2022-11-30T10:10:54.369Z,38.90
2022-11-30T10:13:55.128Z,39.47
2022-11-30T10:16:26.681Z,37.33
2022-11-30T10:19:19.414Z,35.73
2022-11-30T10:22:11.456Z,38.43
2022-11-30T10:25:11.867Z,37.23
2022-11-30T10:27:48.543Z,40.57
2022-11-30T10:30:30.072Z,37.37
2022-11-30T10:32:59.885Z,40.10
2022-11-30T10:35:35.671Z,39.27
2022-11-30T10:38:15.257Z,38.60
2022-11-30T10:40:56.014Z,37.00
2022-11-30T10:43:37.588Z,41.33
2022-11-30T10:46:05.119Z,38.00
2022-11-30T10:48:40.873Z,37.50
2022-11-30T10:51:08.306Z,38.37
2022-11-30T10:53:35.227Z,59.60
2022-11-30T10:56:06.480Z,39.77
2022-11-30T10:58:37.321Z,38.47
2022-11-30T11:01:07.407Z,37.07
2022-11-30T11:03:34.778Z,43.17
2022-11-30T11:06:23.243Z,38.50
2022-11-30T11:08:50.148Z,37.30
2022-11-30T11:11:56.033Z,37.33
2022-11-30T11:14:24.387Z,36.67
2022-11-30T11:16:52.521Z,42.60
2022-11-30T11:19:34.403Z,39.33
2022-11-30T11:22:04.914Z,57.43
2022-11-30T11:24:32.213Z,43.70
2022-11-30T11:26:59.319Z,42.00
2022-11-30T11:29:32.048Z,39.97
2022-11-30T11:32:24.949Z,41.03
2022-11-30T11:34:52.220Z,38.67
2022-11-30T11:37:31.524Z,38.17
2022-11-30T11:40:08.961Z,36.60
2022-11-30T11:42:41.046Z,36.97
2022-11-30T11:45:17.406Z,37.57
2022-11-30T11:47:45.876Z,37.10
2022-11-30T11:50:12.653Z,36.87
2022-11-30T11:52:39.529Z,38.57
2022-11-30T11:55:12.970Z,37.77
2022-11-30T11:57:49.242Z,37.72
2022-11-30T12:00:21.575Z,38.60
2022-11-30T12:02:59.146Z,37.90
2022-11-30T12:05:41.117Z,36.73
2022-11-30T12:08:16.505Z,37.20
2022-11-30T12:11:07.515Z,39.00
2022-11-30T12:13:38.825Z,36.57
2022-11-30T12:16:11.683Z,38.17
2022-11-30T12:18:49.118Z,37.67
2022-11-30T12:21:25.281Z,37.37
2022-11-30T12:24:14.019Z,39.03
2022-11-30T12:26:45.319Z,36.53
2022-11-30T12:29:40.254Z,39.43
2022-11-30T12:32:13.508Z,39.53
2022-11-30T12:35:02.040Z,37.10
2022-11-30T12:37:48.934Z,37.87
2022-11-30T12:40:34.561Z,35.43
2022-11-30T12:43:15.693Z,40.43
2022-11-30T12:45:46.692Z,38.50
2022-11-30T12:48:22.526Z,40.07
2022-11-30T12:50:55.311Z,41.47
2022-11-30T12:53:47.811Z,37.83
2022-11-30T12:56:46.360Z,39.30
2022-11-30T12:59:35.221Z,38.90
2022-11-30T13:02:20.656Z,38.67
2022-11-30T13:04:58.738Z,39.50
2022-11-30T13:07:29.666Z,39.80
2022-11-30T13:09:59.156Z,39.97
2022-11-30T13:12:36.138Z,42.63
2022-11-30T13:15:19.132Z,41.43
2022-11-30T13:17:46.637Z,41.43
2022-11-30T13:20:45.693Z,41.17
2022-11-30T13:23:18.523Z,39.13
2022-11-30T13:26:11.722Z,40.53
2022-11-30T13:28:41.550Z,41.77
2022-11-30T13:31:14.278Z,40.73
2022-11-30T13:33:58.793Z,39.50
2022-11-30T13:36:33.549Z,40.30
2022-11-30T13:39:19.881Z,42.30
2022-11-30T13:41:49.497Z,41.20
2022-11-30T13:44:32.328Z,40.93
2022-11-30T13:47:05.042Z,40.00
2022-11-30T13:49:35.601Z,41.43
2022-11-30T13:54:57.205Z,40.03
2022-11-30T13:57:30.050Z,42.03
2022-11-30T14:00:01.062Z,39.50
2022-11-30T14:02:31.020Z,40.57
2022-11-30T14:05:16.132Z,41.00
2022-11-30T14:07:52.210Z,39.80
2022-11-30T14:10:33.286Z,38.63
2022-11-30T14:13:09.430Z,40.90
2022-11-30T14:15:39.265Z,43.10
2022-11-30T14:18:09.159Z,42.13
2022-11-30T14:20:44.045Z,41.10
2022-11-30T14:23:13.854Z,41.90
2022-11-30T14:25:47.090Z,40.60
2022-11-30T14:30:46.386Z,75.50
2022-11-30T14:33:19.486Z,56.60
2022-11-30T14:35:49.778Z,44.38
2022-11-30T14:38:33.889Z,42.90
2022-11-30T14:41:01.109Z,41.30
2022-11-30T14:43:28.943Z,43.00
2022-11-30T14:46:22.158Z,41.53
2022-11-30T14:49:04.876Z,41.57
2022-11-30T14:51:35.046Z,41.23
2022-11-30T14:54:14.030Z,40.73
2022-11-30T14:56:52.716Z,40.37
2022-11-30T14:59:51.577Z,39.27
2022-11-30T15:02:26.575Z,40.13
2022-11-30T15:04:54.569Z,41.97
2022-11-30T15:07:23.106Z,40.17
2022-11-30T15:09:52.365Z,38.67
2022-11-30T15:12:21.211Z,41.63
2022-11-30T15:15:17.099Z,41.20
2022-11-30T15:17:54.724Z,44.77
2022-11-30T15:20:39.645Z,39.87
2022-11-30T15:23:12.890Z,39.50
2022-11-30T15:25:48.481Z,40.27
2022-11-30T15:28:20.425Z,41.07
2022-11-30T15:30:48.846Z,42.93
2022-11-30T15:33:23.862Z,43.07
2022-11-30T15:36:18.759Z,40.63
2022-11-30T15:38:41.736Z,41.83
2022-11-30T15:41:22.328Z,43.77
2022-11-30T15:43:54.361Z,50.73
2022-11-30T15:46:46.324Z,60.43
2022-11-30T15:49:28.094Z,42.40
2022-11-30T15:52:18.241Z,42.10
2022-11-30T15:54:55.904Z,41.20
2022-11-30T16:00:21.729Z,37.20
2022-11-30T16:02:48.772Z,36.13
2022-11-30T16:05:19.708Z,41.67
2022-11-30T16:08:06.243Z,37.07
2022-11-30T16:10:38.533Z,36.03
2022-11-30T16:13:06.036Z,38.20
2022-11-30T16:15:37.468Z,37.37
2022-11-30T16:18:24.720Z,37.33
2022-11-30T16:20:54.834Z,34.07
2022-11-30T16:23:21.654Z,35.03
2022-11-30T16:25:49.474Z,35.17
2022-11-30T16:28:17.488Z,34.23
2022-11-30T16:30:44.675Z,32.97
2022-11-30T16:33:17.265Z,32.30
2022-11-30T16:35:51.820Z,35.50
2022-11-30T16:38:18.946Z,33.07
2022-11-30T16:40:46.219Z,35.10
2022-11-30T16:43:13.303Z,32.57
2022-11-30T16:45:42.154Z,35.43
2022-11-30T16:48:09.032Z,30.90
2022-11-30T16:50:36.520Z,32.03
2022-11-30T16:53:04.702Z,34.43
2022-11-30T16:55:37.811Z,32.73
2022-11-30T16:58:05.290Z,33.57
2022-11-30T17:00:32.465Z,34.43
2022-11-30T17:03:18.628Z,33.60
2022-11-30T17:05:48.353Z,34.13
2022-11-30T17:08:15.254Z,32.30
2022-11-30T17:10:42.401Z,35.07
2022-11-30T17:13:13.791Z,32.37
2022-11-30T17:15:40.975Z,33.77
2022-11-30T17:18:07.798Z,35.93
2022-11-30T17:20:36.256Z,36.73
2022-11-30T17:23:04.084Z,34.57
2022-11-30T17:25:30.983Z,34.33
2022-11-30T17:27:57.886Z,35.53
2022-11-30T17:30:24.877Z,36.43
2022-11-30T17:32:51.684Z,36.77
2022-11-30T17:35:19.078Z,35.57
2022-11-30T17:37:46.085Z,35.13
2022-11-30T17:40:14.410Z,33.07
2022-11-30T17:42:41.187Z,37.37
2022-11-30T17:45:08.621Z,41.57
2022-11-30T17:47:35.415Z,36.97
2022-11-30T17:50:02.394Z,36.00
2022-11-30T17:52:29.185Z,44.23
2022-11-30T17:54:55.992Z,40.83
2022-11-30T17:57:22.911Z,35.60
2022-11-30T17:59:49.708Z,35.77
2022-11-30T18:02:16.563Z,35.53
2022-11-30T18:04:43.457Z,34.10
2022-11-30T18:07:10.265Z,42.33
2022-11-30T18:09:42.394Z,37.13
2022-11-30T18:12:10.843Z,35.97
2022-11-30T18:14:37.649Z,36.43
2022-11-30T18:17:05.613Z,48.20
2022-11-30T18:19:32.609Z,46.57
2022-11-30T18:21:59.509Z,42.50
2022-11-30T18:24:26.414Z,37.73
2022-11-30T18:26:53.580Z,36.00
2022-11-30T18:29:20.533Z,35.07
2022-11-30T18:31:51.318Z,37.63
2022-11-30T18:34:18.333Z,37.17
2022-11-30T18:36:45.287Z,32.33
2022-11-30T18:39:12.242Z,35.67
2022-11-30T18:41:41.821Z,36.57
2022-11-30T18:44:09.838Z,35.23
2022-11-30T18:46:36.800Z,34.17
2022-11-30T18:49:03.669Z,34.80
2022-11-30T18:51:30.981Z,36.73
2022-11-30T18:54:05.726Z,33.17
2022-11-30T18:56:34.999Z,41.20
2022-11-30T18:59:06.110Z,34.17
2022-11-30T19:01:32.948Z,32.60
2022-11-30T19:04:01.940Z,39.30
2022-11-30T19:06:29.870Z,38.07
2022-11-30T19:08:57.372Z,36.63
2022-11-30T19:11:24.400Z,35.90
2022-11-30T19:13:58.728Z,38.77
2022-11-30T19:18:53.564Z,35.50
2022-11-30T19:21:21.922Z,33.30
2022-11-30T19:23:49.423Z,34.57
2022-11-30T19:26:16.285Z,31.80
2022-11-30T19:28:44.123Z,34.13
2022-11-30T19:31:13.252Z,32.00
2022-11-30T19:33:41.303Z,32.13
2022-11-30T19:36:11.846Z,29.77
2022-11-30T19:38:38.736Z,32.13
2022-11-30T19:41:07.031Z,31.70
2022-11-30T19:43:34.091Z,30.37
2022-11-30T19:46:12.094Z,29.93
2022-11-30T19:48:38.990Z,32.37
2022-11-30T19:51:18.594Z,32.83
2022-11-30T19:53:45.899Z,32.10
2022-11-30T19:56:17.043Z,29.97
2022-11-30T19:58:45.498Z,29.73
2022-11-30T20:01:19.354Z,30.37
2022-11-30T20:03:46.256Z,31.55
2022-11-30T20:06:13.051Z,29.10
2022-11-30T20:08:40.368Z,29.30
2022-11-30T20:11:08.545Z,28.27
2022-11-30T20:13:35.414Z,29.10
2022-11-30T20:16:23.973Z,29.57
2022-11-30T20:18:56.340Z,26.23
2022-11-30T20:21:25.499Z,26.17
2022-11-30T20:23:54.637Z,26.13
2022-11-30T20:26:29.860Z,27.30
2022-11-30T20:28:57.765Z,25.73
2022-11-30T20:31:25.777Z,27.73
2022-11-30T20:33:52.591Z,28.43
2022-11-30T20:36:20.800Z,30.30
2022-11-30T20:38:47.870Z,29.70
2022-11-30T20:41:16.747Z,30.27
2022-11-30T20:43:43.731Z,34.90
2022-11-30T20:46:15.853Z,31.17
2022-11-30T20:48:42.858Z,30.97
2022-11-30T20:51:30.780Z,31.47
2022-11-30T20:54:06.581Z,30.30
2022-11-30T20:56:35.383Z,32.07
2022-11-30T20:59:12.127Z,31.47
2022-11-30T21:01:46.037Z,31.50
2022-11-30T21:04:13.021Z,31.67
2022-11-30T21:06:40.682Z,34.40
2022-11-30T21:09:07.828Z,33.23
2022-11-30T21:11:34.731Z,33.17
2022-11-30T21:14:01.553Z,32.07
2022-11-30T21:16:29.840Z,34.83
2022-11-30T21:18:58.452Z,32.97
2022-11-30T21:21:28.457Z,34.37
2022-11-30T21:23:57.690Z,34.63
2022-11-30T21:26:26.975Z,36.00
2022-11-30T21:28:58.404Z,35.60
2022-11-30T21:31:25.293Z,33.53
2022-11-30T21:33:53.609Z,35.73
2022-11-30T21:36:21.784Z,35.57
2022-11-30T21:38:51.264Z,37.10
2022-11-30T21:41:18.237Z,33.77
2022-11-30T21:43:45.062Z,34.07
2022-11-30T21:46:14.543Z,31.47
2022-11-30T21:48:45.491Z,33.67
2022-11-30T21:51:14.748Z,32.47
2022-11-30T21:53:46.583Z,30.97
2022-11-30T21:56:17.705Z,31.30
2022-11-30T21:58:46.579Z,31.70
2022-11-30T22:01:18.231Z,33.60
2022-11-30T22:03:45.475Z,33.90
2022-11-30T22:06:14.553Z,31.90
2022-11-30T22:08:41.975Z,35.30
2022-11-30T22:11:11.844Z,32.57
2022-11-30T22:13:39.541Z,35.27
2022-11-30T22:16:14.644Z,34.23
2022-11-30T22:18:42.835Z,33.67
2022-11-30T22:21:10.990Z,35.10
2022-11-30T22:23:40.094Z,29.37
2022-11-30T22:26:11.131Z,30.67
2022-11-30T22:28:38.335Z,30.20
2022-11-30T22:31:10.061Z,30.97
2022-11-30T22:33:38.813Z,29.80
2022-11-30T22:36:07.055Z,28.57
2022-11-30T22:38:36.826Z,29.00
2022-11-30T22:41:06.048Z,33.07
2022-11-30T22:43:33.425Z,33.50
2022-11-30T22:46:05.727Z,29.70
2022-11-30T22:48:33.069Z,33.73
2022-11-30T22:51:21.150Z,33.57
2022-11-30T22:53:48.949Z,33.83
2022-11-30T22:56:18.571Z,34.37
2022-11-30T22:58:49.556Z,34.50
2022-11-30T23:01:17.558Z,36.17
2022-11-30T23:03:45.610Z,35.40
2022-11-30T23:06:13.570Z,34.90
2022-11-30T23:08:40.331Z,33.60
2022-11-30T23:11:09.431Z,32.23
2022-11-30T23:13:37.387Z,34.17
2022-11-30T23:16:04.904Z,31.87
2022-11-30T23:18:37.159Z,33.57
2022-11-30T23:21:06.825Z,33.40
2022-11-30T23:23:33.611Z,35.07
2022-11-30T23:26:16.964Z,33.33
2022-11-30T23:28:45.307Z,33.63
2022-11-30T23:31:34.128Z,36.23
2022-11-30T23:34:01.311Z,34.77
2022-11-30T23:36:31.154Z,33.47
2022-11-30T23:38:59.637Z,35.10
2022-11-30T23:41:26.675Z,33.80
2022-11-30T23:43:53.774Z,33.77
2022-11-30T23:46:20.904Z,37.30
2022-11-30T23:48:48.005Z,35.23
2022-11-30T23:51:14.816Z,39.07
2022-11-30T23:53:41.593Z,39.17
2022-11-30T23:56:11.409Z,36.83
2022-11-30T23:58:39.579Z,39.00
